Flight Track Log - Related Links

Times and Time Zones

All times are in EDT time to prevent confusion due to time zone crossing. See the HDA906 flight status page for this flight to view local times or setup timezone preferences in your user account.

Time Position Orientation Groundspeed Altitude Reporting Facility
EDT Latitude Longitude Course Direction KTS MPH feet Rate Location/Type
Sat 07:37:32 AM 23.9539 114.1246 North  Level Estimated
Sat 07:38:32 AM 24.0598 114.1383 North  Level Estimated
Sat 07:39:32 AM 24.1656 114.1520 North  Level Estimated
Sat 07:40:32 AM 24.2715 114.1657 North  Level Estimated
Sat 07:41:32 AM 24.3774 114.1795 North  Level Estimated
Sat 07:42:32 AM 24.4833 114.1933 North  Level Estimated
Sat 07:43:32 AM 24.5892 114.2071 North  Level Estimated
Sat 07:44:32 AM 24.6951 114.2209 North  Level Estimated
Sat 07:45:32 AM 24.8009 114.2348 North  Level Estimated
Sat 07:46:32 AM 24.9068 114.2487 North  Level Estimated
Sat 07:47:32 AM 25.0127 114.2626 North  Level Estimated
Sat 07:48:32 AM 25.1186 114.2765 North  Level Estimated
Sat 07:49:32 AM 25.2244 114.2905 North  Level Estimated
Sat 07:50:32 AM 25.3303 114.3045 North  Level Estimated
Sat 07:51:32 AM 25.4362 114.3185 North  Level Estimated
Sat 07:52:32 AM 25.5421 114.3325 North  Level Estimated
Sat 07:53:32 AM 25.6479 114.3465 North  Level Estimated
Sat 07:54:32 AM 25.7538 114.3606 North  Level Estimated
Sat 07:55:32 AM 25.8597 114.3747 North  Level Estimated
Sat 07:56:32 AM 25.9655 114.3888 North  Level Estimated
Sat 07:57:32 AM 26.0714 114.4030 North  Level Estimated
Sat 07:58:32 AM 26.1773 114.4172 North  Level Estimated
Sat 07:59:32 AM 26.2831 114.4314 North  Level Estimated
Sat 08:00:32 AM 26.3890 114.4456 North  Level Estimated
Sat 08:01:32 AM 26.4948 114.4599 North  Level Estimated
Sat 08:02:32 AM 26.6007 114.4742 North  Level Estimated
Sat 08:03:32 AM 26.7066 114.4885 North  Level Estimated
Sat 08:04:32 AM 26.8124 114.5028 North  Level Estimated
Sat 08:05:32 AM 26.9183 114.5172 North  Level Estimated
Sat 08:06:32 AM 27.0241 114.5315 North  Level Estimated
Sat 08:07:32 AM 27.1300 114.5460 North  Level Estimated
Sat 08:08:32 AM 27.2358 114.5604 North  Level Estimated
Sat 08:09:32 AM 27.3417 114.5749 North  Level Estimated
Sat 08:10:32 AM 27.4475 114.5894 North  Level Estimated
Sat 08:11:32 AM 27.5533 114.6039 North  Level Estimated
Sat 08:12:32 AM 27.6592 114.6184 North  Level Estimated
Sat 08:13:32 AM 27.7650 114.6330 North  Level Estimated
Sat 08:14:32 AM 27.8709 114.6477 North  Level Estimated
Sat 08:15:32 AM 27.9767 114.6623 North  Level Estimated
Sat 08:16:32 AM 28.0825 114.6770 North  Level Estimated
Sat 08:17:32 AM 28.1884 114.6917 North  Level Estimated
Sat 08:18:32 AM 28.2942 114.7064 North  Level Estimated
Sat 08:19:32 AM 28.4000 114.7212 North  Level Estimated
Sat 08:20:32 AM 28.5059 114.7359 North  Level Estimated
Sat 08:21:32 AM 28.6117 114.7508 North  Level Estimated
Sat 08:22:32 AM 28.7175 114.7656 North  Level Estimated
Sat 08:23:32 AM 28.8234 114.7805 North  Level Estimated
Sat 08:24:32 AM 28.9292 114.7954 North  Level Estimated
Sat 08:25:32 AM 29.0350 114.8103 North  Level Estimated
Sat 08:26:32 AM 29.1408 114.8253 North  Level Estimated
Sat 08:27:32 AM 29.2466 114.8403 North  Level Estimated
Sat 08:28:32 AM 29.3524 114.8553 North  Level Estimated
Sat 08:29:32 AM 29.4583 114.8704 North  Level Estimated
Sat 08:30:32 AM 29.5641 114.8855 North  Level Estimated
Sat 08:31:32 AM 29.6699 114.9006 North  Level Estimated
Sat 08:32:32 AM 29.7757 114.9157 North  Level Estimated
Sat 08:33:32 AM 29.8815 114.9309 North  Level Estimated
Sat 08:34:32 AM 29.9691 114.9435 North  Level Estimated
Sat 08:35:32 AM 30.0566 114.9561 North  Level Estimated
Sat 08:36:32 AM 30.1442 114.9688 North  Level Estimated
Sat 08:37:32 AM 30.2317 114.9814 North  Level Estimated
Sat 08:38:32 AM 30.3193 114.9941 North  Level Estimated
Sat 08:39:32 AM 30.4069 115.0068 North  Level Estimated
Sat 08:40:32 AM 30.4944 115.0195 North  Level Estimated
Sat 08:41:32 AM 30.5820 115.0323 North  Level Estimated
Sat 08:42:32 AM 30.6695 115.0451 North  Level Estimated
Sat 08:43:32 AM 30.7571 115.0579 North  Level Estimated
Sat 08:44:32 AM 30.8446 115.0707 North  Level Estimated
Sat 08:45:32 AM 30.9322 115.0835 North  Level Estimated
Sat 08:46:32 AM 31.0197 115.0964 North  Level Estimated
Sat 08:47:32 AM 31.1073 115.1093 North  Level Estimated
Sat 08:48:32 AM 31.1948 115.1222 North  Level Estimated
Sat 08:49:32 AM 31.2824 115.1352 North  Level Estimated
Sat 08:50:32 AM 31.3699 115.1481 North  Level Estimated
Sat 08:51:32 AM 31.4575 115.1611 North  Level Estimated
Sat 08:52:32 AM 31.5450 115.1741 North  Level Estimated
Sat 08:53:32 AM 31.6325 115.1872 North  Level Estimated
Sat 08:54:32 AM 31.7201 115.2002 North  Level Estimated
Sat 08:55:32 AM 31.8076 115.2133 North  Level Estimated
Sat 08:56:32 AM 31.8951 115.2264 North  Level Estimated
Sat 08:57:32 AM 31.9827 115.2396 North  Level Estimated
Sat 08:58:32 AM 32.0702 115.2527 North  Level Estimated
Sat 08:59:32 AM 32.1577 115.2659 North  Level Estimated
Sat 09:00:32 AM 32.2453 115.2791 North  Level Estimated
Sat 09:01:32 AM 32.3328 115.2924 North  Level Estimated
Sat 09:02:32 AM 32.4203 115.3056 North  Level Estimated
Sat 09:03:32 AM 32.5079 115.3189 North  Level Estimated
Sat 09:04:32 AM 32.5954 115.3323 North  Level Estimated
Sat 09:05:32 AM 32.6829 115.3456 North  Level Estimated
Sat 09:06:32 AM 32.7704 115.3589 North  Level Estimated
Sat 09:07:32 AM 32.8579 115.3723 North  Level Estimated
Sat 09:08:32 AM 32.9455 115.3858 North  Level Estimated
Sat 09:09:32 AM 33.0330 115.3992 North  Level Estimated
Sat 09:10:32 AM 33.1205 115.4127 North  Level Estimated
Sat 09:11:32 AM 33.2080 115.4262 North  Level Estimated
Sat 09:12:32 AM 33.2955 115.4397 North  Level Estimated
Sat 09:13:32 AM 33.3830 115.4532 North  Level Estimated
Sat 09:14:32 AM 33.4706 115.4668 North  Level Estimated
Sat 09:15:32 AM 33.5581 115.4804 North  Level Estimated
Sat 09:16:32 AM 33.6456 115.4941 North  Level Estimated
Sat 09:17:32 AM 33.7331 115.5077 North  Level Estimated
Sat 09:18:32 AM 33.8206 115.5214 North  Level Estimated
Sat 09:19:32 AM 33.9081 115.5351 North  Level Estimated
Sat 09:20:32 AM 33.9956 115.5489 North  Level Estimated
Sat 09:21:32 AM 34.0831 115.5627 North  Level Estimated
Sat 09:22:32 AM 34.1706 115.5765 North  Level Estimated
Sat 09:23:32 AM 34.2581 115.5903 North  Level Estimated
Sat 09:24:32 AM 34.3456 115.6041 North  Level Estimated
Sat 09:25:32 AM 34.4331 115.6180 North  Level Estimated
Sat 09:26:32 AM 34.5206 115.6320 North  Level Estimated
Sat 09:27:32 AM 34.6081 115.6459 North  Level Estimated
Sat 09:28:32 AM 34.6955 115.6599 North  Level Estimated
Sat 09:29:32 AM 34.7830 115.6739 North  Level Estimated
Sat 09:30:32 AM 34.8705 115.6879 North  Level Estimated
Sat 09:31:32 AM 34.9580 115.7020 North  Level Estimated
Sat 09:32:32 AM 35.0455 115.7161 North  Level Estimated
Sat 09:33:32 AM 35.1330 115.7302 North  Level Estimated
Sat 09:34:32 AM 35.2205 115.7444 North  Level Estimated
Sat 09:35:32 AM 35.3079 115.7586 North  Level Estimated
Sat 09:36:32 AM 35.3954 115.7728 North  Level Estimated
Sat 09:37:32 AM 35.4829 115.7870 North  Level Estimated
Sat 09:38:32 AM 35.5704 115.8013 North  Level Estimated
Sat 09:39:32 AM 35.6578 115.8156 North  Level Estimated
Sat 09:40:32 AM 35.7453 115.8300 North  Level Estimated
Sat 09:41:32 AM 35.8328 115.8444 North  Level Estimated
Sat 09:42:32 AM 35.9202 115.8588 North  Level Estimated
Sat 09:43:32 AM 36.0077 115.8732 North  Level Estimated
Sat 09:44:32 AM 36.0952 115.8877 North  Level Estimated
Sat 09:45:32 AM 36.1826 115.9022 North  Level Estimated
Sat 09:46:32 AM 36.2701 115.9167 North  Level Estimated
Sat 09:47:32 AM 36.3575 115.9313 North  Level Estimated
Sat 09:48:32 AM 36.4450 115.9459 North  Level Estimated
Sat 09:49:32 AM 36.5325 115.9605 North  Level Estimated
Sat 09:50:32 AM 36.6199 115.9752 North  Level Estimated
Sat 09:51:32 AM 36.7074 115.9899 North  Level Estimated
Sat 09:52:32 AM 36.7948 116.0046 North  Level Estimated
Sat 09:53:32 AM 36.8823 116.0194 North  Level Estimated
Sat 09:54:32 AM 36.9697 116.0342 North  Level Estimated
Sat 09:55:32 AM 37.0571 116.0490 North  Level Estimated
Sat 09:56:32 AM 37.1446 116.0639 North  Level Estimated
Sat 09:57:32 AM 37.2320 116.0788 North  Level Estimated
Sat 09:58:32 AM 37.3195 116.0938 North  Level Estimated
Sat 09:59:32 AM 37.4069 116.1087 North  Level Estimated
Sat 10:00:32 AM 37.4943 116.1237 North  Level Estimated
Sat 10:01:32 AM 37.5818 116.1388 North  Level Estimated
Sat 10:02:32 AM 37.6692 116.1539 North  Level Estimated
Sat 10:03:32 AM 37.7566 116.1690 North  Level Estimated
Sat 10:04:32 AM 37.8440 116.1841 North  Level Estimated
Sat 10:05:32 AM 37.9315 116.1993 North  Level Estimated
Sat 10:06:32 AM 38.0189 116.2145 North  Level Estimated
Sat 10:07:32 AM 38.1063 116.2298 North  Level Estimated
Sat 10:08:32 AM 38.1937 116.2451 North  Level Estimated
Sat 10:09:32 AM 38.2811 116.2604 North  Level Estimated
Sat 10:10:32 AM 38.3685 116.2758 North  Level Estimated
Sat 10:11:32 AM 38.4560 116.2912 North  Level Estimated
Sat 10:12:32 AM 38.5434 116.3066 North  Level Estimated
Sat 10:13:32 AM 38.6308 116.3221 North  Level Estimated
Sat 10:14:32 AM 38.7182 116.3376 North  Level Estimated
Sat 10:15:32 AM 38.8056 116.3532 North  Level Estimated
Sat 10:16:32 AM 38.8930 116.3688 North  Level Estimated
Sat 10:17:32 AM 38.9804 116.3844 North  Level Estimated
Sat 10:18:32 AM 39.0678 116.4001 North  Level Estimated
Sat 10:19:32 AM 39.1552 116.4158 North  Level Estimated
Sat 10:20:32 AM 39.2426 116.4316 North  Level Estimated
Sat 10:21:32 AM 39.3300 116.4473 North  Level Estimated
Sat 10:22:32 AM 39.4174 116.4632 North  Level Estimated
Sat 10:23:32 AM 39.5047 116.4790 North  Level Estimated
Sat 10:24:32 AM 39.5921 116.4950 North  Level Estimated
Sat 10:25:32 AM 39.6795 116.5109 North  Level Estimated
Sat 10:26:32 AM 39.7669 116.5269 North  Level Estimated
Sat 10:27:32 AM 39.8638 116.5447 North  Level Estimated
Sat 10:28:32 AM 39.9607 116.5625 North  Level Estimated
Sat 10:29:32 AM 40.0577 116.5804 North  Level Estimated
Sat 10:30:32 AM 40.1546 116.5983 188° South  Level Estimated
Sat 10:31:32 AM 40.0577 116.5804 North  Level Estimated
Sat 10:32:32 AM 40.1546 116.5983 188° South  Level Estimated
Sat 10:33:32 AM 40.0577 116.5804 North  Level Estimated
Sat 10:34:32 AM 40.1546 116.5983 188° South  Level Estimated
Sat 10:35:32 AM 40.0577 116.5804 188° South  Level Estimated

Login

Don't have an account? Register now (free) for customized features, flight alerts, and more!